sensor_id;sensor_type;location;lat;lon;timestamp;pressure;altitude;pressure_sealevel;temperature;humidity
21203;BME280;10759;51.982;9.232;2023-03-26T00:01:40;99290.91;;;10.08;97.37
21203;BME280;10759;51.982;9.232;2023-03-26T00:04:12;99272.31;;;9.89;96.90
21203;BME280;10759;51.982;9.232;2023-03-26T00:06:42;99300.53;;;9.95;98.29
21203;BME280;10759;51.982;9.232;2023-03-26T00:09:10;99296.88;;;10.14;96.81
21203;BME280;10759;51.982;9.232;2023-03-26T00:11:39;99298.50;;;10.34;96.12
21203;BME280;10759;51.982;9.232;2023-03-26T00:14:08;99289.81;;;10.13;96.52
21203;BME280;10759;51.982;9.232;2023-03-26T00:16:39;99263.69;;;10.00;96.20
21203;BME280;10759;51.982;9.232;2023-03-26T00:19:09;99307.28;;;10.20;96.96
21203;BME280;10759;51.982;9.232;2023-03-26T00:21:37;99320.50;;;10.05;97.45
21203;BME280;10759;51.982;9.232;2023-03-26T00:24:09;99303.63;;;9.87;98.20
21203;BME280;10759;51.982;9.232;2023-03-26T00:26:41;99321.13;;;10.10;96.88
21203;BME280;10759;51.982;9.232;2023-03-26T00:29:10;99321.75;;;10.16;96.48
21203;BME280;10759;51.982;9.232;2023-03-26T00:31:39;99337.81;;;10.16;96.18
21203;BME280;10759;51.982;9.232;2023-03-26T00:34:12;99258.44;;;9.81;95.50
21203;BME280;10759;51.982;9.232;2023-03-26T00:36:41;99330.44;;;9.86;96.78
21203;BME280;10759;51.982;9.232;2023-03-26T00:39:11;99325.19;;;10.02;96.08
21203;BME280;10759;51.982;9.232;2023-03-26T00:41:39;99331.38;;;10.02;95.73
21203;BME280;10759;51.982;9.232;2023-03-26T00:44:08;99329.63;;;10.01;95.69
21203;BME280;10759;51.982;9.232;2023-03-26T00:46:37;99288.75;;;9.64;96.53
21203;BME280;10759;51.982;9.232;2023-03-26T00:49:05;99328.09;;;9.97;96.10
21203;BME280;10759;51.982;9.232;2023-03-26T00:51:36;99336.25;;;9.94;96.39
21203;BME280;10759;51.982;9.232;2023-03-26T00:54:06;99276.94;;;9.51;96.62
21203;BME280;10759;51.982;9.232;2023-03-26T00:56:35;99317.84;;;9.88;95.77
21203;BME280;10759;51.982;9.232;2023-03-26T00:59:04;99315.13;;;9.89;95.21
21203;BME280;10759;51.982;9.232;2023-03-26T01:01:32;99336.91;;;9.99;95.19
21203;BME280;10759;51.982;9.232;2023-03-26T01:07:04;99283.94;;;9.36;96.98
21203;BME280;10759;51.982;9.232;2023-03-26T01:09:39;99335.25;;;9.79;96.58
21203;BME280;10759;51.982;9.232;2023-03-26T01:12:13;99340.97;;;9.89;96.62
21203;BME280;10759;51.982;9.232;2023-03-26T01:14:43;99337.78;;;10.00;95.53
21203;BME280;10759;51.982;9.232;2023-03-26T01:17:12;99339.66;;;9.80;96.34
21203;BME280;10759;51.982;9.232;2023-03-26T01:19:46;99342.56;;;9.93;95.96
21203;BME280;10759;51.982;9.232;2023-03-26T01:22:18;99330.75;;;9.97;96.03
21203;BME280;10759;51.982;9.232;2023-03-26T01:24:48;99332.03;;;9.90;96.62
21203;BME280;10759;51.982;9.232;2023-03-26T01:27:28;99345.56;;;9.87;96.97
21203;BME280;10759;51.982;9.232;2023-03-26T01:30:04;99335.00;;;9.84;97.27
21203;BME280;10759;51.982;9.232;2023-03-26T01:32:47;99339.41;;;10.02;96.44
21203;BME280;10759;51.982;9.232;2023-03-26T01:35:25;99340.84;;;9.92;96.91
21203;BME280;10759;51.982;9.232;2023-03-26T01:38:01;99314.72;;;9.80;97.28
21203;BME280;10759;51.982;9.232;2023-03-26T01:40:41;99324.84;;;10.08;96.49
21203;BME280;10759;51.982;9.232;2023-03-26T01:43:20;99333.50;;;10.13;95.98
21203;BME280;10759;51.982;9.232;2023-03-26T01:45:50;99335.88;;;10.02;96.14
21203;BME280;10759;51.982;9.232;2023-03-26T01:48:18;99312.03;;;9.80;96.59
21203;BME280;10759;51.982;9.232;2023-03-26T01:50:46;99334.72;;;9.90;96.99
21203;BME280;10759;51.982;9.232;2023-03-26T01:53:19;99319.09;;;9.98;96.29
21203;BME280;10759;51.982;9.232;2023-03-26T01:55:54;99335.94;;;10.18;95.33
21203;BME280;10759;51.982;9.232;2023-03-26T01:58:31;99330.91;;;10.12;95.40
21203;BME280;10759;51.982;9.232;2023-03-26T02:01:09;99262.31;;;9.58;96.01
21203;BME280;10759;51.982;9.232;2023-03-26T02:03:45;99326.56;;;10.09;95.65
21203;BME280;10759;51.982;9.232;2023-03-26T02:06:20;99324.16;;;10.04;95.89
21203;BME280;10759;51.982;9.232;2023-03-26T02:08:52;99329.13;;;9.95;96.06
21203;BME280;10759;51.982;9.232;2023-03-26T02:11:24;99280.97;;;9.77;96.17
21203;BME280;10759;51.982;9.232;2023-03-26T02:14:02;99315.50;;;9.99;96.54
21203;BME280;10759;51.982;9.232;2023-03-26T02:16:31;99324.91;;;10.06;95.74
21203;BME280;10759;51.982;9.232;2023-03-26T02:18:58;99319.81;;;10.02;96.56
21203;BME280;10759;51.982;9.232;2023-03-26T02:21:27;99316.13;;;9.87;97.20
21203;BME280;10759;51.982;9.232;2023-03-26T02:23:56;99314.31;;;10.05;96.19
21203;BME280;10759;51.982;9.232;2023-03-26T02:26:33;99286.06;;;9.64;97.07
21203;BME280;10759;51.982;9.232;2023-03-26T02:29:09;99294.72;;;9.87;97.13
21203;BME280;10759;51.982;9.232;2023-03-26T02:31:40;99309.19;;;10.00;96.26
21203;BME280;10759;51.982;9.232;2023-03-26T02:34:09;99297.09;;;9.76;97.45
21203;BME280;10759;51.982;9.232;2023-03-26T02:36:39;99296.75;;;9.82;97.12
21203;BME280;10759;51.982;9.232;2023-03-26T02:39:08;99203.34;;;9.09;97.51
21203;BME280;10759;51.982;9.232;2023-03-26T02:41:39;99292.59;;;9.76;97.18
21203;BME280;10759;51.982;9.232;2023-03-26T02:44:10;99283.88;;;9.73;96.95
21203;BME280;10759;51.982;9.232;2023-03-26T02:46:56;99289.13;;;9.92;96.15
21203;BME280;10759;51.982;9.232;2023-03-26T02:49:45;99284.25;;;9.82;96.95
21203;BME280;10759;51.982;9.232;2023-03-26T02:52:29;99278.91;;;9.82;97.13
21203;BME280;10759;51.982;9.232;2023-03-26T02:54:59;99280.56;;;9.85;96.58
21203;BME280;10759;51.982;9.232;2023-03-26T02:57:28;99282.09;;;10.06;95.63
21203;BME280;10759;51.982;9.232;2023-03-26T03:00:14;99260.72;;;9.72;96.29
21203;BME280;10759;51.982;9.232;2023-03-26T03:02:45;99280.41;;;9.71;97.39
21203;BME280;10759;51.982;9.232;2023-03-26T03:05:40;99237.22;;;9.26;98.79
21203;BME280;10759;51.982;9.232;2023-03-26T03:08:36;99269.56;;;9.56;98.90
21203;BME280;10759;51.982;9.232;2023-03-26T03:11:17;99277.19;;;9.64;99.33
21203;BME280;10759;51.982;9.232;2023-03-26T03:13:51;99276.66;;;10.08;96.96
21203;BME280;10759;51.982;9.232;2023-03-26T03:16:27;99275.09;;;10.04;96.83
21203;BME280;10759;51.982;9.232;2023-03-26T03:18:58;99276.28;;;9.98;97.60
21203;BME280;10759;51.982;9.232;2023-03-26T03:21:38;99274.41;;;10.00;97.46
21203;BME280;10759;51.982;9.232;2023-03-26T03:24:07;99282.13;;;9.89;98.39
21203;BME280;10759;51.982;9.232;2023-03-26T03:26:44;99244.16;;;9.98;97.13
21203;BME280;10759;51.982;9.232;2023-03-26T03:29:41;99274.34;;;10.18;96.60
21203;BME280;10759;51.982;9.232;2023-03-26T03:32:29;99281.84;;;10.11;97.09
21203;BME280;10759;51.982;9.232;2023-03-26T03:35:02;99279.50;;;10.05;97.87
21203;BME280;10759;51.982;9.232;2023-03-26T03:37:30;99271.84;;;10.15;97.26
21203;BME280;10759;51.982;9.232;2023-03-26T03:39:59;99228.94;;;9.83;96.94
21203;BME280;10759;51.982;9.232;2023-03-26T03:42:30;99233.91;;;10.06;95.97
21203;BME280;10759;51.982;9.232;2023-03-26T03:45:02;99274.22;;;10.54;94.92
21203;BME280;10759;51.982;9.232;2023-03-26T03:47:57;99274.69;;;10.29;94.95
21203;BME280;10759;51.982;9.232;2023-03-26T03:50:34;99251.34;;;9.98;96.86
21203;BME280;10759;51.982;9.232;2023-03-26T03:53:28;99277.63;;;10.40;95.86
21203;BME280;10759;51.982;9.232;2023-03-26T03:55:58;99276.47;;;10.28;96.29
21203;BME280;10759;51.982;9.232;2023-03-26T03:58:46;99276.34;;;10.14;96.43
21203;BME280;10759;51.982;9.232;2023-03-26T04:01:23;99263.75;;;9.99;97.20
21203;BME280;10759;51.982;9.232;2023-03-26T04:03:57;99208.91;;;9.39;99.43
21203;BME280;10759;51.982;9.232;2023-03-26T04:06:39;99276.91;;;10.03;97.63
21203;BME280;10759;51.982;9.232;2023-03-26T04:09:08;99250.13;;;9.70;98.40
21203;BME280;10759;51.982;9.232;2023-03-26T04:11:37;99268.59;;;9.92;98.64
21203;BME280;10759;51.982;9.232;2023-03-26T04:14:25;99262.97;;;10.14;97.29
21203;BME280;10759;51.982;9.232;2023-03-26T04:17:03;99270.75;;;10.01;97.35
21203;BME280;10759;51.982;9.232;2023-03-26T04:19:35;99262.50;;;10.06;97.87
21203;BME280;10759;51.982;9.232;2023-03-26T04:22:06;99264.91;;;10.28;96.36
21203;BME280;10759;51.982;9.232;2023-03-26T04:24:42;99209.56;;;9.95;96.16
21203;BME280;10759;51.982;9.232;2023-03-26T04:27:42;99145.75;;;9.54;96.32
21203;BME280;10759;51.982;9.232;2023-03-26T04:30:19;99146.69;;;9.53;96.33
21203;BME280;10759;51.982;9.232;2023-03-26T04:32:55;99247.16;;;10.25;96.46
21203;BME280;10759;51.982;9.232;2023-03-26T04:35:26;99247.97;;;10.27;95.91
21203;BME280;10759;51.982;9.232;2023-03-26T04:37:56;99245.88;;;10.17;96.72
21203;BME280;10759;51.982;9.232;2023-03-26T04:40:30;99241.78;;;10.09;97.04
21203;BME280;10759;51.982;9.232;2023-03-26T04:43:23;99237.63;;;10.04;97.12
21203;BME280;10759;51.982;9.232;2023-03-26T04:46:04;99236.16;;;9.98;99.05
21203;BME280;10759;51.982;9.232;2023-03-26T04:48:40;99225.91;;;9.89;98.44
21203;BME280;10759;51.982;9.232;2023-03-26T04:51:09;99245.41;;;10.08;98.42
21203;BME280;10759;51.982;9.232;2023-03-26T04:53:49;99235.78;;;10.22;97.68
21203;BME280;10759;51.982;9.232;2023-03-26T04:56:44;99235.78;;;10.22;97.28
21203;BME280;10759;51.982;9.232;2023-03-26T04:59:30;99243.63;;;10.25;97.26
21203;BME280;10759;51.982;9.232;2023-03-26T05:02:04;99235.47;;;10.28;97.06
21203;BME280;10759;51.982;9.232;2023-03-26T05:04:45;99153.69;;;9.56;98.15
21203;BME280;10759;51.982;9.232;2023-03-26T05:07:18;99219.28;;;9.96;98.39
21203;BME280;10759;51.982;9.232;2023-03-26T05:09:51;99233.66;;;10.11;99.13
21203;BME280;10759;51.982;9.232;2023-03-26T05:12:32;99231.69;;;10.15;98.31
21203;BME280;10759;51.982;9.232;2023-03-26T05:15:05;99237.22;;;10.12;98.57
21203;BME280;10759;51.982;9.232;2023-03-26T05:18:02;99223.13;;;10.08;98.85
21203;BME280;10759;51.982;9.232;2023-03-26T05:20:39;99229.34;;;10.08;99.29
21203;BME280;10759;51.982;9.232;2023-03-26T05:23:09;99222.59;;;10.01;99.72
21203;BME280;10759;51.982;9.232;2023-03-26T05:25:57;99216.91;;;10.07;100.00
21203;BME280;10759;51.982;9.232;2023-03-26T05:28:25;99209.91;;;10.38;100.00
21203;BME280;10759;51.982;9.232;2023-03-26T05:31:01;99207.13;;;10.56;98.54
21203;BME280;10759;51.982;9.232;2023-03-26T05:33:34;99204.88;;;10.48;98.32
21203;BME280;10759;51.982;9.232;2023-03-26T05:36:10;99207.25;;;10.54;98.00
21203;BME280;10759;51.982;9.232;2023-03-26T05:38:47;99212.16;;;10.62;98.23
21203;BME280;10759;51.982;9.232;2023-03-26T05:41:33;99203.53;;;10.57;97.98
21203;BME280;10759;51.982;9.232;2023-03-26T05:44:02;99198.16;;;10.41;99.66
21203;BME280;10759;51.982;9.232;2023-03-26T05:46:30;99191.00;;;10.41;99.03
21203;BME280;10759;51.982;9.232;2023-03-26T05:48:58;99187.63;;;10.53;98.39
21203;BME280;10759;51.982;9.232;2023-03-26T05:51:33;99084.88;;;9.75;100.00
21203;BME280;10759;51.982;9.232;2023-03-26T05:54:36;99193.41;;;10.62;99.74
21203;BME280;10759;51.982;9.232;2023-03-26T05:57:06;99176.94;;;10.53;99.06
21203;BME280;10759;51.982;9.232;2023-03-26T05:59:53;99193.84;;;10.54;99.14
21203;BME280;10759;51.982;9.232;2023-03-26T06:02:54;99180.53;;;10.52;98.58
21203;BME280;10759;51.982;9.232;2023-03-26T06:05:43;99182.53;;;10.49;99.34
21203;BME280;10759;51.982;9.232;2023-03-26T06:08:18;99185.72;;;10.56;99.52
21203;BME280;10759;51.982;9.232;2023-03-26T06:10:56;99168.28;;;10.48;99.22
21203;BME280;10759;51.982;9.232;2023-03-26T06:13:25;99182.69;;;10.30;100.00
21203;BME280;10759;51.982;9.232;2023-03-26T06:15:54;99169.63;;;10.56;100.00
21203;BME280;10759;51.982;9.232;2023-03-26T06:18:30;99166.81;;;10.59;100.00
21203;BME280;10759;51.982;9.232;2023-03-26T06:21:17;99160.84;;;10.53;100.00
21203;BME280;10759;51.982;9.232;2023-03-26T06:23:57;99166.22;;;10.53;100.00
21203;BME280;10759;51.982;9.232;2023-03-26T06:26:38;99160.94;;;10.52;100.00
21203;BME280;10759;51.982;9.232;2023-03-26T06:29:28;99164.66;;;10.49;99.99
21203;BME280;10759;51.982;9.232;2023-03-26T06:32:09;99163.34;;;10.57;99.41
21203;BME280;10759;51.982;9.232;2023-03-26T06:35:05;99141.47;;;10.64;99.28
21203;BME280;10759;51.982;9.232;2023-03-26T06:37:33;99166.50;;;10.79;99.66
21203;BME280;10759;51.982;9.232;2023-03-26T06:40:04;99152.53;;;10.58;100.00
21203;BME280;10759;51.982;9.232;2023-03-26T06:43:07;99157.41;;;10.51;100.00
21203;BME280;10759;51.982;9.232;2023-03-26T06:46:08;99167.09;;;10.84;100.00
21203;BME280;10759;51.982;9.232;2023-03-26T06:48:36;99172.56;;;10.67;99.59
21203;BME280;10759;51.982;9.232;2023-03-26T06:51:25;99164.81;;;10.62;100.00
21203;BME280;10759;51.982;9.232;2023-03-26T06:54:16;99153.22;;;10.46;100.00
21203;BME280;10759;51.982;9.232;2023-03-26T06:57:17;99164.13;;;10.59;100.00
21203;BME280;10759;51.982;9.232;2023-03-26T07:00:08;99155.16;;;10.44;100.00
21203;BME280;10759;51.982;9.232;2023-03-26T07:02:54;99161.56;;;10.41;100.00
21203;BME280;10759;51.982;9.232;2023-03-26T07:05:41;99155.75;;;10.49;100.00
21203;BME280;10759;51.982;9.232;2023-03-26T07:08:28;99135.53;;;10.59;100.00
21203;BME280;10759;51.982;9.232;2023-03-26T07:11:33;99114.75;;;10.63;100.00
21203;BME280;10759;51.982;9.232;2023-03-26T07:14:22;99117.66;;;10.44;100.00
21203;BME280;10759;51.982;9.232;2023-03-26T07:17:06;99143.56;;;10.43;100.00
21203;BME280;10759;51.982;9.232;2023-03-26T07:20:05;99132.28;;;10.84;100.00
21203;BME280;10759;51.982;9.232;2023-03-26T07:22:34;99094.25;;;10.78;100.00
21203;BME280;10759;51.982;9.232;2023-03-26T07:25:06;99122.91;;;10.91;100.00
21203;BME280;10759;51.982;9.232;2023-03-26T07:27:52;99003.63;;;10.40;100.00
21203;BME280;10759;51.982;9.232;2023-03-26T07:30:54;99116.91;;;11.32;100.00
21203;BME280;10759;51.982;9.232;2023-03-26T07:33:43;99125.03;;;11.31;99.31
21203;BME280;10759;51.982;9.232;2023-03-26T07:36:31;99108.00;;;11.46;97.82
21203;BME280;10759;51.982;9.232;2023-03-26T07:39:31;99115.72;;;11.22;97.05
21203;BME280;10759;51.982;9.232;2023-03-26T07:42:29;99112.75;;;11.27;99.31
21203;BME280;10759;51.982;9.232;2023-03-26T07:45:24;99093.69;;;11.31;96.00
21203;BME280;10759;51.982;9.232;2023-03-26T07:48:11;99079.88;;;11.09;99.39
21203;BME280;10759;51.982;9.232;2023-03-26T07:51:07;99117.00;;;11.45;98.11
21203;BME280;10759;51.982;9.232;2023-03-26T07:53:59;99118.63;;;11.33;97.22
21203;BME280;10759;51.982;9.232;2023-03-26T07:56:41;99105.22;;;11.62;95.98
21203;BME280;10759;51.982;9.232;2023-03-26T07:59:48;99104.19;;;11.79;95.96
21203;BME280;10759;51.982;9.232;2023-03-26T08:03:10;99063.75;;;10.94;96.19
21203;BME280;10759;51.982;9.232;2023-03-26T08:05:56;99103.03;;;10.95;96.91
21203;BME280;10759;51.982;9.232;2023-03-26T08:08:52;99105.38;;;11.16;98.93
21203;BME280;10759;51.982;9.232;2023-03-26T08:11:53;99067.72;;;11.03;98.13
21203;BME280;10759;51.982;9.232;2023-03-26T08:14:31;99077.72;;;11.30;96.10
21203;BME280;10759;51.982;9.232;2023-03-26T08:17:06;99098.50;;;11.41;93.79
21203;BME280;10759;51.982;9.232;2023-03-26T08:19:43;99093.44;;;11.50;90.70
21203;BME280;10759;51.982;9.232;2023-03-26T08:22:17;99098.41;;;11.56;88.75
21203;BME280;10759;51.982;9.232;2023-03-26T08:25:17;99098.91;;;11.63;90.54
21203;BME280;10759;51.982;9.232;2023-03-26T08:27:53;99098.41;;;11.71;95.17
21203;BME280;10759;51.982;9.232;2023-03-26T08:30:27;99093.09;;;12.27;88.06
21203;BME280;10759;51.982;9.232;2023-03-26T08:32:58;99099.25;;;11.86;84.67
21203;BME280;10759;51.982;9.232;2023-03-26T08:35:27;99099.56;;;11.81;86.15
21203;BME280;10759;51.982;9.232;2023-03-26T08:37:55;99105.22;;;11.91;85.56
21203;BME280;10759;51.982;9.232;2023-03-26T08:43:38;99094.88;;;11.85;88.37
21203;BME280;10759;51.982;9.232;2023-03-26T08:46:40;99102.16;;;11.97;89.52
21203;BME280;10759;51.982;9.232;2023-03-26T08:49:37;99095.84;;;11.69;93.13
21203;BME280;10759;51.982;9.232;2023-03-26T08:52:34;98961.63;;;10.85;91.99
21203;BME280;10759;51.982;9.232;2023-03-26T08:55:19;99098.31;;;11.72;92.87
21203;BME280;10759;51.982;9.232;2023-03-26T09:01:10;99086.97;;;12.24;91.97
21203;BME280;10759;51.982;9.232;2023-03-26T09:04:13;99073.97;;;11.75;92.05
21203;BME280;10759;51.982;9.232;2023-03-26T09:10:25;99068.50;;;12.06;87.54
21203;BME280;10759;51.982;9.232;2023-03-26T09:16:43;99069.69;;;12.56;87.17
21203;BME280;10759;51.982;9.232;2023-03-26T09:19:44;99041.91;;;12.15;89.65
21203;BME280;10759;51.982;9.232;2023-03-26T09:25:58;99062.69;;;12.53;87.58
21203;BME280;10759;51.982;9.232;2023-03-26T09:35:07;99062.69;;;12.53;85.09
21203;BME280;10759;51.982;9.232;2023-03-26T09:37:56;99052.38;;;12.60;85.31
21203;BME280;10759;51.982;9.232;2023-03-26T09:40:35;98951.38;;;11.76;84.98
21203;BME280;10759;51.982;9.232;2023-03-26T09:43:29;99050.03;;;11.87;84.64
21203;BME280;10759;51.982;9.232;2023-03-26T09:46:14;99046.38;;;12.56;80.86
21203;BME280;10759;51.982;9.232;2023-03-26T09:49:00;99035.84;;;12.53;81.83
21203;BME280;10759;51.982;9.232;2023-03-26T09:51:46;99046.22;;;12.85;83.87
21203;BME280;10759;51.982;9.232;2023-03-26T09:54:44;98978.16;;;12.32;86.66
21203;BME280;10759;51.982;9.232;2023-03-26T09:57:28;99021.38;;;12.94;80.89
21203;BME280;10759;51.982;9.232;2023-03-26T10:00:14;99044.69;;;13.46;78.69
21203;BME280;10759;51.982;9.232;2023-03-26T10:03:10;99016.03;;;13.07;76.64
21203;BME280;10759;51.982;9.232;2023-03-26T10:05:51;99042.09;;;13.32;75.41
21203;BME280;10759;51.982;9.232;2023-03-26T10:08:35;99024.94;;;12.95;79.94
21203;BME280;10759;51.982;9.232;2023-03-26T10:11:16;99031.94;;;12.57;86.43
21203;BME280;10759;51.982;9.232;2023-03-26T10:13:56;99039.47;;;12.52;90.31
21203;BME280;10759;51.982;9.232;2023-03-26T10:16:34;98972.66;;;12.86;87.72
21203;BME280;10759;51.982;9.232;2023-03-26T10:19:25;99010.13;;;13.15;86.15
21203;BME280;10759;51.982;9.232;2023-03-26T10:22:01;99027.09;;;13.15;84.30
21203;BME280;10759;51.982;9.232;2023-03-26T10:24:50;99024.28;;;13.17;86.36
21203;BME280;10759;51.982;9.232;2023-03-26T10:27:36;99021.94;;;13.50;84.59
21203;BME280;10759;51.982;9.232;2023-03-26T10:30:35;99017.84;;;13.06;84.59
21203;BME280;10759;51.982;9.232;2023-03-26T10:33:13;99011.59;;;12.80;87.83
21203;BME280;10759;51.982;9.232;2023-03-26T10:35:53;99016.34;;;13.15;84.60
21203;BME280;10759;51.982;9.232;2023-03-26T10:38:32;99017.97;;;13.18;81.02
21203;BME280;10759;51.982;9.232;2023-03-26T10:41:06;99016.72;;;12.71;81.90
21203;BME280;10759;51.982;9.232;2023-03-26T10:43:58;99009.03;;;13.04;85.47
21203;BME280;10759;51.982;9.232;2023-03-26T10:47:06;99009.22;;;13.01;83.55
21203;BME280;10759;51.982;9.232;2023-03-26T10:49:55;98998.59;;;13.13;83.04
21203;BME280;10759;51.982;9.232;2023-03-26T10:52:33;98885.31;;;12.28;82.02
21203;BME280;10759;51.982;9.232;2023-03-26T10:55:10;99004.59;;;13.16;82.26
21203;BME280;10759;51.982;9.232;2023-03-26T10:57:44;99011.38;;;12.96;80.19
21203;BME280;10759;51.982;9.232;2023-03-26T11:00:15;98989.13;;;13.07;81.63
21203;BME280;10759;51.982;9.232;2023-03-26T11:02:47;99007.13;;;13.32;79.04
21203;BME280;10759;51.982;9.232;2023-03-26T11:05:43;98928.47;;;12.64;82.94
21203;BME280;10759;51.982;9.232;2023-03-26T11:08:17;98984.38;;;12.32;86.06
21203;BME280;10759;51.982;9.232;2023-03-26T11:11:04;99012.09;;;12.33;86.61
21203;BME280;10759;51.982;9.232;2023-03-26T11:13:45;99006.47;;;11.96;87.00
21203;BME280;10759;51.982;9.232;2023-03-26T11:16:20;99001.75;;;12.14;87.24
21203;BME280;10759;51.982;9.232;2023-03-26T11:18:57;99013.59;;;11.97;84.96
21203;BME280;10759;51.982;9.232;2023-03-26T11:21:32;99017.38;;;12.07;84.48
21203;BME280;10759;51.982;9.232;2023-03-26T11:24:30;99018.13;;;12.23;84.97
21203;BME280;10759;51.982;9.232;2023-03-26T11:27:06;99020.78;;;11.96;84.56
21203;BME280;10759;51.982;9.232;2023-03-26T11:29:46;99015.34;;;11.69;83.91
21203;BME280;10759;51.982;9.232;2023-03-26T11:32:20;98986.13;;;11.50;83.84
21203;BME280;10759;51.982;9.232;2023-03-26T11:34:55;98996.41;;;11.85;84.45
21203;BME280;10759;51.982;9.232;2023-03-26T11:37:31;98984.66;;;11.88;84.54
21203;BME280;10759;51.982;9.232;2023-03-26T11:40:02;99009.63;;;12.02;83.92
21203;BME280;10759;51.982;9.232;2023-03-26T11:42:33;99010.06;;;11.96;84.11
21203;BME280;10759;51.982;9.232;2023-03-26T11:45:03;99011.09;;;11.94;85.23
21203;BME280;10759;51.982;9.232;2023-03-26T11:47:38;99006.91;;;11.90;85.75
21203;BME280;10759;51.982;9.232;2023-03-26T11:50:13;98998.91;;;11.74;87.14
21203;BME280;10759;51.982;9.232;2023-03-26T11:52:43;98992.16;;;11.54;89.40
21203;BME280;10759;51.982;9.232;2023-03-26T11:55:12;98998.34;;;11.69;90.86
21203;BME280;10759;51.982;9.232;2023-03-26T11:57:46;98998.75;;;11.77;91.42
21203;BME280;10759;51.982;9.232;2023-03-26T12:00:18;99004.63;;;11.55;90.85
21203;BME280;10759;51.982;9.232;2023-03-26T12:02:48;98999.25;;;11.55;92.15
21203;BME280;10759;51.982;9.232;2023-03-26T12:05:19;99010.34;;;11.77;91.88
21203;BME280;10759;51.982;9.232;2023-03-26T12:07:54;99014.03;;;11.48;95.97
21203;BME280;10759;51.982;9.232;2023-03-26T12:10:26;99022.34;;;11.57;91.90
21203;BME280;10759;51.982;9.232;2023-03-26T12:12:58;99012.88;;;11.37;88.96
21203;BME280;10759;51.982;9.232;2023-03-26T12:15:27;99016.91;;;11.16;94.25
21203;BME280;10759;51.982;9.232;2023-03-26T12:17:56;99027.59;;;11.02;97.04
21203;BME280;10759;51.982;9.232;2023-03-26T12:20:34;99025.13;;;10.99;100.00
21203;BME280;10759;51.982;9.232;2023-03-26T12:23:05;99032.22;;;10.69;100.00
21203;BME280;10759;51.982;9.232;2023-03-26T12:25:35;99004.00;;;10.64;100.00
21203;BME280;10759;51.982;9.232;2023-03-26T12:28:15;99019.91;;;10.81;100.00
21203;BME280;10759;51.982;9.232;2023-03-26T12:30:51;99024.53;;;10.93;99.42
21203;BME280;10759;51.982;9.232;2023-03-26T12:33:23;99014.91;;;10.75;98.85
21203;BME280;10759;51.982;9.232;2023-03-26T12:35:54;99024.78;;;10.74;100.00
21203;BME280;10759;51.982;9.232;2023-03-26T12:38:29;99020.09;;;10.92;100.00
21203;BME280;10759;51.982;9.232;2023-03-26T12:41:06;98969.78;;;10.83;98.12
21203;BME280;10759;51.982;9.232;2023-03-26T12:43:55;99020.69;;;10.98;98.34
21203;BME280;10759;51.982;9.232;2023-03-26T12:46:44;98998.38;;;10.97;96.82
21203;BME280;10759;51.982;9.232;2023-03-26T12:49:32;99012.06;;;10.92;97.10
21203;BME280;10759;51.982;9.232;2023-03-26T12:52:13;99017.44;;;10.92;96.68
21203;BME280;10759;51.982;9.232;2023-03-26T12:54:52;99019.97;;;10.65;100.00
21203;BME280;10759;51.982;9.232;2023-03-26T12:57:24;99017.41;;;10.48;100.00
21203;BME280;10759;51.982;9.232;2023-03-26T13:00:02;98984.50;;;10.00;100.00
21203;BME280;10759;51.982;9.232;2023-03-26T13:02:51;99014.91;;;9.83;100.00
21203;BME280;10759;51.982;9.232;2023-03-26T13:05:39;99005.91;;;9.84;100.00
21203;BME280;10759;51.982;9.232;2023-03-26T13:08:22;99015.78;;;9.99;100.00
21203;BME280;10759;51.982;9.232;2023-03-26T13:10:57;98982.56;;;10.18;100.00
21203;BME280;10759;51.982;9.232;2023-03-26T13:16:28;98962.44;;;9.64;100.00
21203;BME280;10759;51.982;9.232;2023-03-26T13:19:02;99004.50;;;10.24;100.00
21203;BME280;10759;51.982;9.232;2023-03-26T13:21:40;98994.69;;;9.93;100.00
21203;BME280;10759;51.982;9.232;2023-03-26T13:24:22;99003.88;;;10.65;100.00
21203;BME280;10759;51.982;9.232;2023-03-26T13:27:07;98994.50;;;10.28;100.00
21203;BME280;10759;51.982;9.232;2023-03-26T13:29:47;99001.50;;;9.67;100.00
21203;BME280;10759;51.982;9.232;2023-03-26T13:32:29;98996.16;;;9.99;100.00
21203;BME280;10759;51.982;9.232;2023-03-26T13:35:12;98990.41;;;9.75;100.00
21203;BME280;10759;51.982;9.232;2023-03-26T13:37:47;98999.88;;;9.96;100.00
21203;BME280;10759;51.982;9.232;2023-03-26T13:40:24;98981.25;;;9.95;100.00
21203;BME280;10759;51.982;9.232;2023-03-26T13:43:09;98899.81;;;9.37;100.00
21203;BME280;10759;51.982;9.232;2023-03-26T13:45:51;98995.63;;;10.08;100.00
21203;BME280;10759;51.982;9.232;2023-03-26T13:48:24;98973.09;;;9.96;100.00
21203;BME280;10759;51.982;9.232;2023-03-26T13:51:00;98933.47;;;9.73;100.00
21203;BME280;10759;51.982;9.232;2023-03-26T13:53:35;98982.53;;;10.49;100.00
21203;BME280;10759;51.982;9.232;2023-03-26T13:56:05;98992.94;;;10.24;100.00
21203;BME280;10759;51.982;9.232;2023-03-26T13:58:40;98982.38;;;10.67;100.00
21203;BME280;10759;51.982;9.232;2023-03-26T14:01:13;98982.28;;;10.83;98.93
21203;BME280;10759;51.982;9.232;2023-03-26T14:03:50;98949.25;;;10.68;96.90
21203;BME280;10759;51.982;9.232;2023-03-26T14:06:29;98983.94;;;11.00;95.42
21203;BME280;10759;51.982;9.232;2023-03-26T14:09:02;98958.00;;;10.86;93.27
21203;BME280;10759;51.982;9.232;2023-03-26T14:11:41;98982.72;;;11.05;93.10
21203;BME280;10759;51.982;9.232;2023-03-26T14:14:16;98986.38;;;10.60;95.32
21203;BME280;10759;51.982;9.232;2023-03-26T14:16:49;98967.13;;;10.53;96.07
21203;BME280;10759;51.982;9.232;2023-03-26T14:20:08;98990.47;;;10.95;91.25
21203;BME280;10759;51.982;9.232;2023-03-26T14:22:47;98987.38;;;10.87;91.10
21203;BME280;10759;51.982;9.232;2023-03-26T14:25:24;98985.97;;;11.10;91.23
21203;BME280;10759;51.982;9.232;2023-03-26T14:28:12;98870.91;;;9.28;95.56
21203;BME280;10759;51.982;9.232;2023-03-26T14:31:08;98988.03;;;10.00;98.76
21203;BME280;10759;51.982;9.232;2023-03-26T14:40:05;98982.22;;;10.84;95.50